Accueil
METAR-TAF:

METAR-TAF

Aéroports :

Cranfield, Angleterre

latitude: 52-04N, longitude: 000-37W, altitude: 111 m

Observation

Le bulletin a été fait il y a 29 minutes, à 10:50 UTC
Vent 14 kt de nord-ouest
Température 11°C
Humidité 66%
Pression 1012 hPa
Visibilité 10 km ou plus
Quelques nuages à une hauteur de 2900 ft
Nuages épars à une hauteur de 3500 ft

METAR: EGTC 161050Z 32014KT 9999 FEW029 SCT035 11/05 Q1012

Heure: 12:19 (11:19 UTC)

Prévision

Le bulletin a été fait il y a 3 heures et 27 minutes, à 07:52 UTC
Prévision valable du 16 à 09 UTC au 16 à 18 UTC
Vent 12 kt de ouest/nord-ouest
Visibilité 10 km ou plus
Nuages épars à une hauteur de 4000 ft
Probabilité 40% :
Temporairement
du 16 à 09 UTC au 16 à 18 UTC
Vent 16 kt de nord-ouest avec des rafales jusqu'à 26 kt
Visibilité: 6000 m
averses de pluie,

TAF: EGTC 160752Z 1609/1618 30012KT 9999 SCT040 PROB40 TEMPO 1609/1618 31016G26KT 6000 SHRA

Observations et prévisions météorologiques de plus de 4000 aéroports (messages METAR et TAF).

Les stations disponibles sont représentées par des disques jaunes et rouges sur la carte.

Passer la souris dessus pour voir le nom de la station.

Cliquer dessus pour voir les observations et prévisions météorologiques.

Pour changer de carte: cliquez sur les boutons verts avec une croix noire pour zoomer, sur le bouton vert avec un tiret pour effectuer un zoom arrière, ou sur les flèches vertes pour les cartes adjacentes.


METAR-TAF: